Pagina principale
METAR-TAF:

METAR-TAF

Aeroporti :

Aeroporto di Lugano-Agno

Lugano, Svizzera

latitudine: 46-00N, longitudine: 008-58E, altezza: 273 m

Osservazione

Il bollettino è stato emesso 38 minuti fa, alle 15:20 UTC
Vento 8 kt da sud, variando fra sud-est e sud/sud-ovest
Temperature 23°C
Umidità 53%
Pressione 1014 hPa
Visibilità 10 km o più
Nubi sparse ad un'altezza di 4000 ft

METAR: LSZA 131520Z 19008KT 140V210 9999 SCT040 23/13 Q1014

Ora: 17:58 (15:58 UTC)

Previsione

Il bollettino è stato emesso 1 ora e 33 minuti fa, alle 14:25 UTC
Previsione valida dal 13 alle 15 UTC al 13 alle 24 UTC
Vento 5 kt da sud
Visibilità 10 km o più
Poco nuvoloso ad un'altezza di 5500 ft
Probabilità 40%
dal 13 alle 15 UTC al 13 alle 21 UTC
Visibilità 10 km o più
nessuna nube inferiore a 1500 m e nessun cumulonembo

TAF: LSZA 131425Z 1315/1324 19005KT 9999 FEW055 PROB40 1315/1321 CAVOK

Osservazioni e previsioni meteorologiche di più di 4000 aeroporti (messaggi METAR e TAF).

Le stazioni disponibili sono rappresentate dai dischi gialli e rossi sulla carta.

Puntare il mouse per vedere il nome della stazione.

Clicca sopra per visualizzare le osservazioni e previsioni meteorologiche.

Per cambiare la mappa : fare clic sui pulsanti verdi con una croce nera per ingrandire, il pulsante verde con un trattino per diminuire, o sulla freccia verde per le mappe adiacenti.


METAR-TAF: